aviador You're here:

KCEW Decoded Metar

CRESTVIEW in FL, USA
Report Time2017-07-26 05:53:00
UTC Time2017-07-26 06:31:15
Flight Rules vfr VFR
WindCalm
Visibility9656 m
Phenomena:Mist
Clouds:N/A
Expected CloudBase > 400 ft AGL from Temp-Dew spread
CeilingNone
Temp23°C (ISA +8)
Dew Point22°C (94% RH)
QNH1020 hPa
Density Alt1,263 ft
Elevation180 ft
Report Wrong Elevation
Raw Report
METAR KCEW 260553Z AUTO 00000KT 6SM BR CLR 23/22 A3011 RMK AO2 SLP191
60000 T02280217 10278 20228 403280228 58002=

Extra information for KCEW:More info

Metar Taf Metar & Taf Last 4 Metars F.Rules Stats Wind Profile Meteogram Temp Stats Airport Information Weather charts Add Link Nearby VenuesMetar ALERT Operation Metar Decoded Social comments

AIRNAV info for KCEW